Time;durP1;ratioP1;P1;durP2;ratioP2;P2;SDS_P1;SDS_P2;PMS_P1;PMS_P2;Temp;Humidity;BMP_temperature;BMP_pressure;BME280_temperature;BME280_humidity;BME280_pressure;Samples;Min_cycle;Max_cycle;Signal;HPM_P1;HPM_P2
2022/05/25 00:02:04;;;;;;;11.83;8.77;;;14.90;99.90;;;;;;4993343;28;20300;-65
2022/05/25 00:04:31;;;;;;;15.40;9.17;;;14.90;99.90;;;;;;4992953;28;20318;-68
2022/05/25 00:06:58;;;;;;;12.77;9.20;;;14.90;99.90;;;;;;4994282;28;20196;-67
2022/05/25 00:09:26;;;;;;;11.30;9.00;;;14.90;99.90;;;;;;4994139;28;20195;-66
2022/05/25 00:11:53;;;;;;;10.97;8.57;;;15.00;99.90;;;;;;4993129;28;20227;-68
2022/05/25 00:14:20;;;;;;;11.33;8.60;;;15.00;99.90;;;;;;4993200;28;20205;-68
2022/05/25 00:16:47;;;;;;;10.60;8.30;;;15.00;99.90;;;;;;4992751;28;20320;-68
2022/05/25 00:21:59;;;;;;;13.50;8.50;;;14.90;99.90;;;;;;4992543;28;20295;-68
2022/05/25 00:24:26;;;;;;;11.47;8.37;;;14.90;99.90;;;;;;4992919;28;20295;-65
2022/05/25 00:26:53;;;;;;;15.70;9.00;;;14.90;99.90;;;;;;4992439;28;20264;-66
2022/05/25 00:29:20;;;;;;;10.73;8.23;;;14.80;99.90;;;;;;4992470;28;20239;-67
2022/05/25 00:31:47;;;;;;;12.80;8.10;;;14.80;99.90;;;;;;4992472;28;20235;-67
2022/05/25 00:34:14;;;;;;;11.13;7.93;;;14.90;99.90;;;;;;4992321;28;20201;-67
2022/05/25 00:36:41;;;;;;;10.97;7.40;;;14.90;99.90;;;;;;4992651;28;20207;-68
2022/05/25 00:39:08;;;;;;;10.23;7.97;;;15.00;99.90;;;;;;4992628;28;20296;-67
2022/05/25 00:41:35;;;;;;;13.17;7.60;;;15.00;99.90;;;;;;4992521;28;20303;-67
2022/05/25 00:44:03;;;;;;;11.40;7.67;;;15.00;99.90;;;;;;4992270;28;20228;-67
2022/05/25 00:46:32;;;;;;;10.80;7.90;;;15.00;99.90;;;;;;4992524;28;20283;-68
2022/05/25 00:49:04;;;;;;;9.37;7.93;;;15.00;99.90;;;;;;4992389;28;20586;-65
2022/05/25 00:51:39;;;;;;;10.63;7.60;;;14.90;99.90;;;;;;4992124;28;20267;-68
2022/05/25 00:54:10;;;;;;;10.70;8.13;;;14.90;99.90;;;;;;4993651;28;20665;-67
2022/05/25 00:56:42;;;;;;;10.93;8.20;;;14.80;99.90;;;;;;4991914;28;20292;-68
2022/05/25 00:59:14;;;;;;;11.93;8.07;;;14.70;99.90;;;;;;4992328;28;20642;-65
2022/05/25 01:01:42;;;;;;;11.87;8.43;;;14.80;99.90;;;;;;4992567;28;20337;-68
2022/05/25 01:04:10;;;;;;;10.47;8.97;;;14.80;99.90;;;;;;4991889;28;20235;-67
2022/05/25 01:06:56;;;;;;;11.80;8.60;;;14.80;99.90;;;;;;4992214;28;20246;-67
2022/05/25 01:09:29;;;;;;;9.83;8.20;;;14.80;99.90;;;;;;4991997;28;20295;-66
2022/05/25 01:12:05;;;;;;;11.50;8.40;;;14.80;99.90;;;;;;4991487;28;20225;-67
2022/05/25 01:15:10;;;;;;;10.90;8.60;;;14.80;99.90;;;;;;4992233;28;20230;-66
2022/05/25 01:18:09;;;;;;;12.50;8.33;;;14.80;99.90;;;;;;4971667;28;20201;-66
2022/05/25 01:20:44;;;;;;;10.33;8.40;;;14.80;99.90;;;;;;4971832;28;20240;-66
2022/05/25 01:23:19;;;;;;;12.20;8.97;;;14.80;99.90;;;;;;4971727;28;20228;-65
2022/05/25 01:26:08;;;;;;;9.93;8.63;;;14.80;99.90;;;;;;4971481;28;20215;-67
2022/05/25 01:28:52;;;;;;;9.67;8.37;;;14.80;99.90;;;;;;4971635;28;20298;-66
2022/05/25 01:31:28;;;;;;;13.77;8.60;;;14.80;99.90;;;;;;4971314;28;20217;-65
2022/05/25 01:34:02;;;;;;;10.83;8.63;;;14.70;99.90;;;;;;4955109;28;20204;-65
2022/05/25 01:37:07;;;;;;;14.07;8.37;;;14.70;99.90;;;;;;4955445;28;20197;-66
2022/05/25 01:39:47;;;;;;;12.07;8.87;;;14.70;99.90;;;;;;4941055;28;20211;-66
2022/05/25 01:42:33;;;;;;;12.07;9.10;;;14.80;99.90;;;;;;4955553;28;20209;-66
2022/05/25 01:45:05;;;;;;;11.33;8.43;;;14.70;99.90;;;;;;4971060;28;20228;-67
2022/05/25 01:47:35;;;;;;;11.07;8.63;;;14.70;99.90;;;;;;4958136;28;20232;-66
2022/05/25 01:50:08;;;;;;;11.80;9.20;;;14.70;99.90;;;;;;4991487;28;20292;-66
2022/05/25 01:52:40;;;;;;;11.30;9.40;;;14.60;99.90;;;;;;4991714;28;20693;-66
2022/05/25 01:55:11;;;;;;;11.17;8.27;;;14.70;99.90;;;;;;4991480;28;20227;-67
2022/05/25 01:57:44;;;;;;;12.20;8.40;;;14.70;99.90;;;;;;4991705;28;20296;-66
2022/05/25 02:00:26;;;;;;;13.73;8.73;;;14.70;99.90;;;;;;4991859;28;20200;-67
2022/05/25 02:05:49;;;;;;;11.17;8.77;;;14.70;99.90;;;;;;4991398;28;20197;-67
2022/05/25 02:08:40;;;;;;;12.20;8.97;;;14.60;99.90;;;;;;4993265;28;20773;-66
2022/05/25 02:11:24;;;;;;;10.43;8.30;;;14.70;99.90;;;;;;4991530;28;20235;-66
2022/05/25 02:14:09;;;;;;;11.93;8.77;;;14.70;99.90;;;;;;4991512;28;20208;-67
2022/05/25 02:16:59;;;;;;;10.97;8.73;;;14.80;99.90;;;;;;4991181;28;20259;-67
2022/05/25 02:19:44;;;;;;;13.57;9.90;;;14.70;99.90;;;;;;4991169;28;20299;-63
2022/05/25 02:22:19;;;;;;;12.50;8.90;;;14.80;99.90;;;;;;4993517;28;20215;-66
2022/05/25 02:24:51;;;;;;;10.50;8.37;;;14.70;99.90;;;;;;4994935;28;20355;-66
2022/05/25 02:27:24;;;;;;;10.23;8.43;;;14.60;99.90;;;;;;4995766;28;20254;-65
2022/05/25 02:29:58;;;;;;;12.50;9.17;;;14.60;99.90;;;;;;4995154;28;20216;-66
2022/05/25 02:32:49;;;;;;;10.23;8.47;;;14.70;99.90;;;;;;4995986;28;20258;-67
2022/05/25 02:35:19;;;;;;;12.93;9.53;;;14.70;99.90;;;;;;4996094;28;20193;-67
2022/05/25 02:37:46;;;;;;;14.50;9.87;;;14.80;99.90;;;;;;4996384;28;20193;-65
2022/05/25 02:40:14;;;;;;;10.47;9.03;;;14.80;99.90;;;;;;4994948;28;20232;-66
2022/05/25 02:42:41;;;;;;;12.50;8.93;;;14.80;99.90;;;;;;4994792;28;20304;-65
2022/05/25 02:45:11;;;;;;;12.87;9.87;;;14.80;99.90;;;;;;4994453;28;20201;-67
2022/05/25 02:47:38;;;;;;;12.93;9.27;;;14.80;99.90;;;;;;4994738;28;20208;-67
2022/05/25 02:50:06;;;;;;;12.53;8.93;;;14.80;99.90;;;;;;4994644;28;20231;-67
2022/05/25 02:56:32;;;;;;;11.97;9.37;;;14.80;99.90;;;;;;5178035;23;20263;-68
2022/05/25 02:58:59;;;;;;;16.80;10.20;;;14.70;99.90;;;;;;4989691;28;20225;-68
2022/05/25 03:01:26;;;;;;;13.53;9.87;;;14.70;99.90;;;;;;4978434;28;20232;-64
2022/05/25 03:03:53;;;;;;;14.30;10.10;;;14.70;99.90;;;;;;4977769;28;20289;-66
2022/05/25 03:06:21;;;;;;;12.23;9.83;;;14.70;99.90;;;;;;4994304;28;20201;-66
2022/05/25 03:08:48;;;;;;;12.63;9.40;;;14.70;99.90;;;;;;4994228;28;20663;-67
2022/05/25 03:11:14;;;;;;;12.90;10.20;;;14.70;99.90;;;;;;4994507;28;20236;-67
2022/05/25 03:13:41;;;;;;;13.27;10.40;;;14.70;99.90;;;;;;4994280;28;20205;-66
2022/05/25 03:16:08;;;;;;;15.57;11.07;;;14.80;99.90;;;;;;4993731;28;20205;-67
2022/05/25 03:18:35;;;;;;;18.53;10.87;;;14.70;99.90;;;;;;4995333;28;20196;-66
2022/05/25 03:21:02;;;;;;;13.33;10.20;;;14.80;99.90;;;;;;4994136;28;20211;-66
2022/05/25 03:23:29;;;;;;;13.90;10.40;;;14.90;99.90;;;;;;4993984;28;20288;-69
2022/05/25 03:25:56;;;;;;;13.60;10.40;;;14.90;99.90;;;;;;4993753;28;20296;-67
2022/05/25 03:28:23;;;;;;;16.23;10.77;;;14.90;99.90;;;;;;4993977;28;20300;-69
2022/05/25 03:30:49;;;;;;;14.43;10.80;;;14.90;99.90;;;;;;4995269;28;20613;-68
2022/05/25 03:33:16;;;;;;;17.20;10.80;;;14.90;99.90;;;;;;4976965;28;20323;-67
2022/05/25 03:35:43;;;;;;;13.10;10.30;;;14.90;99.90;;;;;;4993495;28;20305;-67
2022/05/25 03:38:10;;;;;;;15.33;11.03;;;15.00;99.90;;;;;;4977233;28;20197;-67
2022/05/25 03:40:39;;;;;;;14.07;11.37;;;15.00;99.90;;;;;;4994279;28;20288;-66
2022/05/25 03:43:09;;;;;;;14.00;11.00;;;15.00;99.90;;;;;;4994709;28;20240;-67
2022/05/25 03:45:37;;;;;;;16.17;11.47;;;15.00;99.90;;;;;;4993568;28;20201;-67
2022/05/25 03:48:07;;;;;;;14.73;11.33;;;15.00;99.90;;;;;;4977317;28;20204;-67
2022/05/25 03:50:39;;;;;;;17.00;12.53;;;15.10;99.90;;;;;;4977406;28;20212;-67
2022/05/25 03:53:08;;;;;;;16.57;12.37;;;15.10;99.90;;;;;;4994463;28;20318;-67
2022/05/25 03:55:35;;;;;;;15.83;12.10;;;15.00;99.90;;;;;;4977126;28;20219;-69
2022/05/25 03:58:03;;;;;;;19.13;12.40;;;15.00;99.90;;;;;;4982899;28;20757;-66
2022/05/25 04:00:31;;;;;;;16.97;11.90;;;15.10;99.90;;;;;;4957274;28;20252;-66
2022/05/25 04:02:59;;;;;;;15.37;11.33;;;15.00;99.90;;;;;;4957374;28;20206;-69
2022/05/25 04:05:27;;;;;;;16.63;12.27;;;15.10;99.90;;;;;;4965420;28;20297;-65
2022/05/25 04:07:58;;;;;;;16.07;12.43;;;15.10;99.90;;;;;;4976963;28;20211;-67
2022/05/25 04:10:30;;;;;;;16.63;12.37;;;15.20;99.90;;;;;;4961934;28;20209;-68
2022/05/25 04:12:58;;;;;;;17.87;13.00;;;15.20;99.90;;;;;;4978087;28;20335;-67
2022/05/25 04:15:27;;;;;;;17.17;12.50;;;15.30;99.90;;;;;;4976991;28;20203;-67
2022/05/25 04:17:54;;;;;;;21.80;12.90;;;15.40;99.90;;;;;;4993094;28;20244;-67
2022/05/25 04:20:23;;;;;;;17.40;13.00;;;15.40;99.90;;;;;;4996317;28;20263;-67
2022/05/25 04:22:50;;;;;;;18.27;12.80;;;15.30;99.90;;;;;;4996010;28;20309;-66
2022/05/25 04:25:20;;;;;;;18.53;13.43;;;15.30;99.90;;;;;;4996048;28;20199;-67
2022/05/25 04:27:49;;;;;;;15.53;12.70;;;15.40;99.90;;;;;;5013581;28;20196;-68
2022/05/25 04:30:18;;;;;;;17.50;12.83;;;15.50;99.90;;;;;;4995714;28;20227;-68
2022/05/25 04:32:45;;;;;;;16.23;12.70;;;15.60;99.90;;;;;;5013457;28;20220;-66
2022/05/25 04:35:14;;;;;;;15.87;13.00;;;15.70;99.90;;;;;;5013300;28;20606;-68
2022/05/25 04:37:52;;;;;;;16.97;13.00;;;15.80;99.90;;;;;;4996068;28;20243;-67
2022/05/25 04:40:31;;;;;;;17.87;13.23;;;15.90;99.90;;;;;;4995657;28;20203;-66
2022/05/25 04:43:00;;;;;;;18.60;13.20;;;16.00;99.90;;;;;;4981573;28;20204;-66
2022/05/25 04:45:28;;;;;;;17.37;12.83;;;16.00;99.90;;;;;;4976169;28;20647;-67
2022/05/25 04:47:56;;;;;;;18.60;13.00;;;16.00;99.90;;;;;;4976048;28;20300;-68
2022/05/25 04:50:25;;;;;;;17.93;12.50;;;16.00;99.90;;;;;;4993953;28;20211;-67
2022/05/25 04:52:53;;;;;;;19.80;12.60;;;16.00;99.90;;;;;;4976083;28;20315;-68
2022/05/25 04:58:17;;;;;;;17.47;12.70;;;16.00;99.90;;;;;;4975645;28;20232;-65
2022/05/25 05:00:44;;;;;;;18.57;13.13;;;16.00;99.90;;;;;;4987323;28;20302;-66
2022/05/25 05:03:10;;;;;;;15.87;12.67;;;16.00;99.90;;;;;;4995163;28;20285;-67
2022/05/25 05:05:38;;;;;;;19.00;13.73;;;16.00;99.90;;;;;;4979150;28;20715;-67
2022/05/25 05:08:07;;;;;;;18.23;13.33;;;16.10;99.90;;;;;;4995376;28;20632;-66
2022/05/25 05:10:34;;;;;;;15.87;12.53;;;16.10;99.90;;;;;;5012918;28;20636;-68
2022/05/25 05:13:04;;;;;;;18.20;13.87;;;16.20;99.90;;;;;;5012793;28;20230;-66
2022/05/25 05:15:36;;;;;;;19.87;14.17;;;16.20;99.90;;;;;;4995307;28;20199;-68
2022/05/25 05:18:04;;;;;;;18.43;13.87;;;16.30;99.90;;;;;;4994859;28;20200;-67
2022/05/25 05:20:31;;;;;;;20.37;13.33;;;16.40;99.90;;;;;;4995063;28;20744;-67
2022/05/25 05:22:58;;;;;;;19.20;14.33;;;16.40;99.90;;;;;;4995022;28;20311;-68
2022/05/25 05:25:26;;;;;;;21.33;14.07;;;16.50;99.90;;;;;;4994646;28;20204;-67
2022/05/25 05:27:53;;;;;;;19.93;14.27;;;16.50;99.90;;;;;;4977825;28;20192;-67
2022/05/25 05:30:22;;;;;;;18.10;14.00;;;16.40;99.90;;;;;;4984049;28;20251;-67
2022/05/25 05:32:49;;;;;;;19.37;14.50;;;16.50;99.90;;;;;;4993408;28;20323;-66
2022/05/25 05:35:16;;;;;;;19.37;14.60;;;16.70;99.90;;;;;;4994609;28;20641;-69
2022/05/25 05:37:50;;;;;;;20.37;14.73;;;16.80;99.90;;;;;;4984979;28;20204;-66
2022/05/25 05:40:19;;;;;;;20.63;14.23;;;16.90;99.90;;;;;;4975886;28;20205;-67
2022/05/25 05:42:48;;;;;;;20.20;14.53;;;17.00;99.90;;;;;;4993044;28;20672;-67
2022/05/25 05:45:22;;;;;;;20.30;15.10;;;17.30;99.90;;;;;;4975508;28;20205;-68
2022/05/25 05:47:53;;;;;;;21.70;14.60;;;17.30;99.90;;;;;;4975146;28;20243;-68
2022/05/25 05:50:23;;;;;;;20.53;14.23;;;17.60;99.90;;;;;;4975350;28;20267;-68
2022/05/25 05:52:51;;;;;;;20.33;15.17;;;17.70;99.90;;;;;;4975645;28;20308;-68
2022/05/25 05:55:19;;;;;;;19.57;15.13;;;17.90;99.90;;;;;;4989479;28;20642;-68
2022/05/25 05:57:46;;;;;;;23.00;15.53;;;18.00;99.90;;;;;;4997530;28;20279;-69
2022/05/25 06:00:15;;;;;;;21.77;15.70;;;17.70;99.90;;;;;;4998672;28;20290;-68
2022/05/25 06:02:43;;;;;;;20.90;15.20;;;17.80;99.90;;;;;;4998848;28;20200;-67
2022/05/25 06:05:11;;;;;;;23.27;16.20;;;17.80;99.90;;;;;;4997989;28;20250;-67
2022/05/25 06:07:39;;;;;;;23.70;16.90;;;17.90;99.90;;;;;;4998700;28;20208;-67
2022/05/25 06:10:07;;;;;;;22.97;16.50;;;17.90;99.90;;;;;;5015908;28;20592;-65
2022/05/25 06:12:39;;;;;;;25.60;17.87;;;18.00;99.90;;;;;;4998294;28;20274;-70
2022/05/25 06:20:38;;;;;;;28.00;17.20;;;18.00;99.90;;;;;;4973252;28;20237;-76
2022/05/25 06:23:05;;;;;;;26.20;18.47;;;18.20;99.90;;;;;;4959482;28;20205;-68
2022/05/25 06:25:31;;;;;;;25.87;18.03;;;18.20;99.90;;;;;;4959007;28;20296;-75
2022/05/25 06:27:58;;;;;;;22.93;16.83;;;18.20;99.90;;;;;;4959274;28;20664;-67
2022/05/25 06:30:25;;;;;;;28.07;18.37;;;18.30;99.90;;;;;;4990326;28;20246;-70
2022/05/25 06:32:52;;;;;;;26.50;18.63;;;18.40;99.90;;;;;;4998004;28;20635;-75
2022/05/25 06:35:19;;;;;;;29.53;18.70;;;18.40;99.90;;;;;;4996548;28;20196;-66
2022/05/25 06:37:47;;;;;;;32.37;20.27;;;18.40;99.90;;;;;;4961717;28;20208;-67
2022/05/25 06:40:15;;;;;;;33.33;20.33;;;18.40;99.90;;;;;;4978172;28;20208;-74
2022/05/25 06:42:42;;;;;;;32.73;21.00;;;18.20;99.90;;;;;;4977689;28;20795;-75
2022/05/25 06:45:10;;;;;;;32.80;20.53;;;18.00;99.90;;;;;;4986078;28;20193;-66
2022/05/25 06:47:37;;;;;;;30.97;19.80;;;18.00;99.90;;;;;;4977320;28;20288;-66
2022/05/25 06:50:06;;;;;;;31.20;19.63;;;18.10;99.90;;;;;;4986825;28;20207;-79
2022/05/25 06:52:33;;;;;;;30.33;19.87;;;18.20;99.90;;;;;;4977566;28;20307;-77
2022/05/25 06:55:00;;;;;;;34.27;20.97;;;18.40;99.90;;;;;;4973975;28;20197;-77
2022/05/25 06:57:27;;;;;;;29.63;19.50;;;18.60;99.90;;;;;;4982757;28;20228;-76
2022/05/25 06:59:55;;;;;;;33.93;21.00;;;18.70;99.90;;;;;;4987589;28;20208;-78
2022/05/25 07:02:23;;;;;;;35.03;20.57;;;18.70;99.90;;;;;;4977703;28;20236;-73
2022/05/25 07:04:51;;;;;;;31.17;20.17;;;18.80;99.90;;;;;;4977131;28;20292;-72
2022/05/25 07:07:18;;;;;;;30.50;20.37;;;18.90;99.90;;;;;;4983384;28;20205;-81
2022/05/25 07:09:45;;;;;;;33.67;21.27;;;19.10;99.90;;;;;;4995565;28;20358;-78
2022/05/25 07:12:13;;;;;;;31.00;19.90;;;19.10;99.90;;;;;;4977760;28;20197;-75
2022/05/25 07:14:41;;;;;;;33.10;21.33;;;19.00;99.90;;;;;;4982885;28;20292;-69
2022/05/25 07:17:09;;;;;;;33.63;21.97;;;19.20;99.90;;;;;;4996558;28;20295;-81
2022/05/25 07:19:36;;;;;;;36.77;22.07;;;19.00;99.90;;;;;;4997511;28;20214;-81
2022/05/25 07:22:11;;;;;;;35.73;22.60;;;19.00;99.90;;;;;;4997254;28;20295;-81
2022/05/25 07:24:45;;;;;;;34.53;20.50;;;18.90;99.90;;;;;;4981134;28;20296;-83
2022/05/25 07:27:12;;;;;;;32.53;20.63;;;18.90;99.90;;;;;;4996591;28;20271;-79
2022/05/25 07:29:39;;;;;;;29.43;20.43;;;19.10;99.90;;;;;;4979129;28;20327;-81
2022/05/25 07:32:09;;;;;;;31.67;20.57;;;19.20;99.90;;;;;;4978114;28;20295;-76
2022/05/25 07:34:46;;;;;;;27.63;20.10;;;19.40;99.90;;;;;;4994756;28;20199;-79
2022/05/25 07:37:21;;;;;;;28.93;19.97;;;19.50;99.90;;;;;;4989337;28;20211;-75
2022/05/25 07:39:55;;;;;;;33.27;20.10;;;19.70;99.90;;;;;;4980904;28;20195;-76
2022/05/25 07:42:23;;;;;;;31.90;19.53;;;19.70;99.90;;;;;;4997039;28;20583;-82
2022/05/25 07:45:03;;;;;;;29.73;20.23;;;19.80;99.90;;;;;;4997067;28;20443;-80
2022/05/25 07:47:31;;;;;;;32.93;21.57;;;19.80;99.90;;;;;;4998123;28;20203;-74
2022/05/25 07:49:59;;;;;;;33.60;21.27;;;19.80;99.90;;;;;;5015268;28;20602;-79
2022/05/25 07:52:29;;;;;;;33.50;20.90;;;19.90;99.90;;;;;;5014356;28;20607;-68
2022/05/25 07:54:56;;;;;;;32.80;21.00;;;19.80;99.90;;;;;;4996598;28;20295;-70
2022/05/25 07:57:23;;;;;;;32.10;20.47;;;19.80;99.90;;;;;;4996343;28;20228;-80
2022/05/25 07:59:50;;;;;;;30.37;20.27;;;19.90;99.90;;;;;;5014059;28;20200;-74
2022/05/25 08:08:07;;;;;;;45.10;21.93;;;20.10;99.90;;;;;;4978787;28;20607;-66
2022/05/25 08:10:35;;;;;;;37.50;22.80;;;20.20;99.90;;;;;;4996330;28;20295;-67
2022/05/25 08:13:04;;;;;;;32.17;21.27;;;20.00;99.90;;;;;;4996663;28;20650;-75
2022/05/25 08:15:33;;;;;;;32.57;20.43;;;20.00;99.90;;;;;;4996856;28;20204;-79
2022/05/25 08:18:00;;;;;;;35.80;21.10;;;20.20;99.90;;;;;;4996389;28;20199;-68
2022/05/25 08:20:30;;;;;;;32.37;20.27;;;20.30;99.90;;;;;;4988082;28;20196;-72
2022/05/25 08:22:58;;;;;;;37.27;20.93;;;20.40;99.90;;;;;;5002605;28;20240;-73
2022/05/25 08:25:25;;;;;;;30.00;20.40;;;20.40;99.90;;;;;;4983422;28;20211;-76
2022/05/25 08:27:52;;;;;;;33.30;21.00;;;20.40;99.90;;;;;;4991052;28;20247;-73
2022/05/25 08:30:21;;;;;;;34.87;20.53;;;20.40;99.90;;;;;;5007690;28;20201;-81
2022/05/25 08:32:48;;;;;;;33.47;21.03;;;20.30;99.90;;;;;;4995788;28;20270;-83
2022/05/25 08:35:15;;;;;;;31.77;21.00;;;20.10;99.90;;;;;;4996150;28;20196;-85
2022/05/25 08:37:42;;;;;;;32.07;20.63;;;20.10;99.90;;;;;;5010609;28;20654;-85
2022/05/25 08:40:12;;;;;;;34.20;20.17;;;20.10;99.90;;;;;;5004596;28;20236;-76
2022/05/25 08:43:07;;;;;;;35.30;21.20;;;20.00;99.90;;;;;;4995858;28;20634;-75
2022/05/25 08:45:41;;;;;;;38.60;22.50;;;20.00;99.90;;;;;;4914218;29;20203;-82
2022/05/25 08:48:11;;;;;;;39.50;22.90;;;19.80;99.90;;;;;;4914671;29;20195;-82
2022/05/25 08:50:40;;;;;;;37.90;23.13;;;19.70;99.90;;;;;;4898626;29;20211;-68
2022/05/25 08:53:11;;;;;;;37.83;23.57;;;19.60;99.90;;;;;;4898793;29;20227;-72
2022/05/25 08:55:56;;;;;;;41.93;25.37;;;19.50;99.90;;;;;;4914390;29;21096;-78
2022/05/25 08:58:38;;;;;;;41.00;26.07;;;19.50;99.90;;;;;;4898473;29;20295;-68
2022/05/25 09:01:06;;;;;;;42.77;26.00;;;19.40;99.90;;;;;;4914335;29;20294;-86
2022/05/25 09:04:00;;;;;;;42.10;26.13;;;19.40;99.90;;;;;;4898685;29;20235;-81
2022/05/25 09:06:47;;;;;;;40.20;26.07;;;19.30;99.90;;;;;;4898704;29;20210;-70
2022/05/25 09:09:25;;;;;;;42.90;26.40;;;19.10;99.90;;;;;;4898537;29;20298;-76
2022/05/25 09:12:07;;;;;;;41.47;26.20;;;19.10;99.90;;;;;;4914700;29;20616;-71
2022/05/25 09:14:39;;;;;;;40.83;27.03;;;19.10;99.90;;;;;;4914614;29;20239;-70
2022/05/25 09:17:20;;;;;;;40.27;26.27;;;19.00;99.90;;;;;;4915050;29;20204;-78
2022/05/25 09:19:47;;;;;;;38.67;26.20;;;18.90;99.90;;;;;;4898883;29;20253;-70
2022/05/25 09:22:19;;;;;;;40.00;26.87;;;18.80;99.90;;;;;;4931681;28;20294;-69
2022/05/25 09:24:48;;;;;;;38.73;26.70;;;18.50;99.90;;;;;;4980650;28;20299;-68
2022/05/25 09:27:18;;;;;;;38.83;26.23;;;18.40;99.90;;;;;;5010323;28;20216;-69
2022/05/25 09:29:45;;;;;;;46.53;27.80;;;18.30;99.90;;;;;;4994890;28;20617;-69
2022/05/25 09:32:34;;;;;;;47.13;28.70;;;18.10;99.90;;;;;;4994695;28;20214;-76
2022/05/25 09:35:07;;;;;;;47.27;28.80;;;17.90;99.90;;;;;;4995118;28;20235;-77
2022/05/25 09:37:49;;;;;;;44.53;28.60;;;17.80;99.90;;;;;;4994701;28;20200;-73
2022/05/25 09:40:24;;;;;;;51.23;30.87;;;17.90;99.90;;;;;;4995061;28;20220;-76
2022/05/25 09:42:57;;;;;;;63.27;37.63;;;17.80;99.90;;;;;;4995140;28;20282;-67
2022/05/25 09:45:33;;;;;;;65.60;37.53;;;17.80;99.90;;;;;;4994710;28;20262;-77
2022/05/25 09:48:30;;;;;;;68.30;37.37;;;17.50;99.90;;;;;;5002168;28;20704;-75
2022/05/25 09:51:04;;;;;;;68.07;37.73;;;17.40;99.90;;;;;;4973164;28;20229;-74
2022/05/25 09:53:39;;;;;;;68.57;37.93;;;17.30;99.90;;;;;;4962256;28;20315;-67
2022/05/25 09:56:30;;;;;;;71.50;38.93;;;17.20;99.90;;;;;;4980309;28;20204;-67
2022/05/25 09:59:02;;;;;;;70.53;39.60;;;17.40;99.90;;;;;;4991164;28;20326;-71
2022/05/25 10:01:56;;;;;;;73.60;38.70;;;17.20;99.90;;;;;;5010096;28;20223;-74
2022/05/25 10:04:52;;;;;;;69.93;37.93;;;17.20;99.90;;;;;;5007757;28;20218;-76
2022/05/25 10:07:25;;;;;;;66.47;35.13;;;17.10;99.90;;;;;;4992447;28;20196;-69
2022/05/25 10:09:53;;;;;;;61.50;34.47;;;17.00;99.90;;;;;;4983544;28;20222;-75
2022/05/25 10:12:30;;;;;;;67.80;34.43;;;16.80;99.90;;;;;;4984053;28;20340;-66
2022/05/25 10:15:10;;;;;;;63.20;35.10;;;16.80;99.90;;;;;;4993287;28;20638;-67
2022/05/25 10:17:39;;;;;;;66.20;36.57;;;16.80;99.90;;;;;;4983232;28;20292;-70
2022/05/25 10:20:22;;;;;;;65.83;35.33;;;16.70;99.90;;;;;;4979484;28;20542;-67
2022/05/25 10:22:59;;;;;;;60.50;34.67;;;16.80;99.90;;;;;;4983317;28;20302;-67
2022/05/25 10:25:35;;;;;;;55.17;34.07;;;16.70;99.90;;;;;;5011698;28;20196;-75
2022/05/25 10:28:08;;;;;;;55.97;33.93;;;16.80;99.90;;;;;;4993608;28;20246;-75
2022/05/25 10:36:50;;;;;;;51.00;32.03;;;17.10;99.90;;;;;;4962707;28;20248;-76
2022/05/25 10:39:20;;;;;;;36.80;24.73;;;17.10;99.90;;;;;;4861153;29;20205;-78
2022/05/25 10:42:23;;;;;;;36.27;25.30;;;16.90;99.90;;;;;;4860596;29;20309;-75
2022/05/25 10:45:05;;;;;;;33.60;24.13;;;16.90;99.90;;;;;;4863736;29;20291;-69
2022/05/25 10:47:45;;;;;;;35.47;24.77;;;16.90;99.90;;;;;;4879391;29;20248;-69
2022/05/25 10:50:38;;;;;;;35.17;23.07;;;17.00;99.90;;;;;;4863420;29;20215;-72
2022/05/25 10:53:37;;;;;;;32.20;20.70;;;17.00;99.90;;;;;;4876788;29;20694;-69
2022/05/25 10:56:31;;;;;;;22.43;17.17;;;17.00;99.90;;;;;;4886472;29;20311;-74
2022/05/25 10:59:26;;;;;;;21.17;16.07;;;16.90;99.90;;;;;;4897280;29;20291;-74
2022/05/25 11:02:26;;;;;;;24.13;16.67;;;16.80;99.90;;;;;;4897661;29;20200;-76
2022/05/25 11:05:15;;;;;;;22.70;17.37;;;16.70;99.90;;;;;;4897268;29;20580;-72
2022/05/25 11:07:43;;;;;;;23.43;16.20;;;16.70;99.90;;;;;;4897185;29;20220;-73
2022/05/25 11:10:37;;;;;;;25.33;16.37;;;16.50;99.90;;;;;;4897578;29;20228;-76
2022/05/25 11:13:18;;;;;;;23.20;16.50;;;16.40;99.90;;;;;;4897752;29;20228;-74
2022/05/25 11:15:52;;;;;;;18.97;14.40;;;16.40;99.90;;;;;;4917692;28;20293;-75
2022/05/25 11:18:46;;;;;;;19.80;15.20;;;16.20;99.90;;;;;;4958646;28;20295;-68
2022/05/25 11:21:36;;;;;;;15.90;13.70;;;16.10;99.90;;;;;;4958802;28;20194;-73
2022/05/25 11:24:24;;;;;;;18.80;13.53;;;16.00;99.90;;;;;;4958722;28;20202;-73
2022/05/25 11:26:51;;;;;;;16.33;13.57;;;16.00;99.90;;;;;;4958456;28;20204;-76
2022/05/25 11:29:42;;;;;;;14.87;11.87;;;15.90;99.90;;;;;;4974588;28;20304;-74
2022/05/25 11:32:39;;;;;;;16.83;12.47;;;15.90;99.90;;;;;;4965535;28;20290;-69
2022/05/25 11:35:12;;;;;;;18.17;12.47;;;15.80;99.90;;;;;;5014369;28;20290;-74
2022/05/25 11:37:57;;;;;;;15.03;12.30;;;15.70;99.90;;;;;;4979363;28;20303;-72
2022/05/25 11:41:13;;;;;;;16.93;13.53;;;15.70;99.90;;;;;;4977399;28;20299;-76
2022/05/25 11:44:00;;;;;;;15.80;12.03;;;15.60;99.90;;;;;;4977240;28;20654;-73
2022/05/25 11:46:48;;;;;;;14.77;11.17;;;15.50;99.90;;;;;;4964145;28;20556;-73
2022/05/25 11:49:46;;;;;;;15.70;11.90;;;15.40;99.90;;;;;;4985927;28;20742;-78
2022/05/25 11:52:45;;;;;;;12.03;10.07;;;15.50;99.90;;;;;;4996798;28;20637;-75
2022/05/25 11:55:23;;;;;;;11.93;8.27;;;15.40;99.90;;;;;;4995994;28;20235;-77
2022/05/25 11:58:52;;;;;;;10.93;8.23;;;15.40;99.90;;;;;;4995984;28;20289;-72
2022/05/25 12:01:28;;;;;;;11.77;8.37;;;15.30;99.90;;;;;;4912452;29;20202;-80
2022/05/25 12:04:20;;;;;;;11.67;9.13;;;15.20;99.90;;;;;;4896310;29;20298;-71
2022/05/25 12:06:56;;;;;;;12.20;9.50;;;15.10;99.90;;;;;;4882127;29;20614;-74
2022/05/25 12:09:44;;;;;;;14.67;9.90;;;15.00;99.90;;;;;;4915440;29;20230;-71
2022/05/25 12:12:34;;;;;;;15.03;10.70;;;14.80;99.90;;;;;;4912853;29;20216;-72
2022/05/25 12:15:03;;;;;;;14.70;10.97;;;14.80;99.90;;;;;;4937705;29;20755;-71
2022/05/25 12:18:09;;;;;;;16.60;12.03;;;14.80;99.90;;;;;;4918335;29;20230;-72
2022/05/25 12:20:48;;;;;;;14.27;11.33;;;14.90;99.90;;;;;;4843711;29;20214;-70
2022/05/25 12:23:22;;;;;;;18.73;11.67;;;14.90;99.90;;;;;;4858984;29;20739;-75
2022/05/25 12:25:56;;;;;;;16.63;11.83;;;15.00;99.90;;;;;;4843115;29;20300;-76
2022/05/25 12:28:29;;;;;;;18.03;12.20;;;15.00;99.90;;;;;;4843661;29;20209;-74
2022/05/25 12:31:01;;;;;;;15.07;11.43;;;15.00;99.90;;;;;;4852924;29;20310;-72
2022/05/25 12:33:28;;;;;;;13.40;10.83;;;15.00;99.90;;;;;;4898929;29;20699;-75
2022/05/25 12:35:56;;;;;;;10.67;7.53;;;15.00;99.90;;;;;;4914747;29;20299;-75
2022/05/25 12:38:25;;;;;;;10.10;7.87;;;14.90;99.90;;;;;;4898812;29;20750;-73
2022/05/25 12:40:53;;;;;;;11.67;6.93;;;14.90;99.90;;;;;;4895834;29;20921;-74
2022/05/25 12:43:38;;;;;;;8.93;6.73;;;15.00;99.90;;;;;;4898822;29;20709;-70
2022/05/25 12:49:00;;;;;;;12.37;8.57;;;14.60;99.90;;;;;;4898893;29;20646;-75
2022/05/25 12:51:36;;;;;;;12.20;9.00;;;14.60;99.90;;;;;;4898659;29;20221;-71
2022/05/25 12:54:21;;;;;;;12.33;9.43;;;14.50;99.90;;;;;;4895499;29;20290;-70
2022/05/25 12:56:50;;;;;;;12.40;8.90;;;14.60;99.90;;;;;;4901151;28;20719;-75
2022/05/25 12:59:34;;;;;;;14.27;8.77;;;14.50;99.90;;;;;;4975875;28;20204;-70
2022/05/25 13:02:19;;;;;;;10.17;7.60;;;14.50;99.90;;;;;;4977096;28;20205;-68
2022/05/25 13:04:55;;;;;;;8.97;7.37;;;14.40;99.90;;;;;;4995360;28;20202;-70
2022/05/25 13:07:45;;;;;;;8.10;6.70;;;14.30;99.90;;;;;;4978114;28;20211;-71
2022/05/25 13:10:20;;;;;;;8.20;6.77;;;14.20;99.90;;;;;;4983766;28;20197;-70
2022/05/25 13:12:51;;;;;;;7.10;5.67;;;14.20;99.90;;;;;;4975987;28;20581;-73
2022/05/25 13:15:18;;;;;;;6.53;5.30;;;14.10;99.90;;;;;;4972535;28;20221;-71
2022/05/25 13:17:48;;;;;;;5.03;3.80;;;14.10;99.90;;;;;;4993438;28;20605;-72
2022/05/25 13:20:29;;;;;;;5.63;3.80;;;13.90;99.90;;;;;;4979523;28;20296;-70
2022/05/25 13:23:01;;;;;;;5.00;3.57;;;13.80;99.90;;;;;;4992619;28;20223;-72
2022/05/25 13:25:46;;;;;;;5.30;3.93;;;13.70;99.90;;;;;;4975492;28;20239;-71
2022/05/25 13:28:16;;;;;;;6.03;3.80;;;13.70;99.90;;;;;;4971826;28;20296;-70
2022/05/25 13:31:04;;;;;;;10.10;4.30;;;13.60;99.90;;;;;;4971981;28;20723;-70
2022/05/25 13:33:39;;;;;;;7.87;4.47;;;13.60;99.90;;;;;;4975953;28;20202;-72
2022/05/25 13:36:19;;;;;;;11.53;5.27;;;13.70;99.90;;;;;;4965639;28;20232;-82
2022/05/25 13:38:46;;;;;;;8.67;4.70;;;13.70;99.90;;;;;;4975643;28;20204;-81